Terminal Aerodrome Forecast
Issued by NWS Pittsburgh, PA

Home | Current Version | Previous Version | Text Only | Print | Product List | Glossary On
Versions: 1 2 3 4 5 6 7 8 9 10 11 12 13 14 15 16 17 18 19 20 21 22 23 24 25 26 27 28 29 30 31 32 33
000
FTUS41 KPBZ 292055 AAA
TAFPIT
TAF AMD
KPIT 292055Z 2921/3024 VRB05KT P6SM SKC
     FM300900 09010KT P6SM BKN100
     FM301600 10012G18KT 6SM -RA OVC040
     FM302100 12012G18KT P6SM BKN250=

USA.gov is the U.S. government's official web portal to all federal, state and local government web resources and services.